createdAt,value
2023-03-12T00:01:19.559Z,3.90
2023-03-12T00:03:47.753Z,3.65
2023-03-12T00:06:15.975Z,3.70
2023-03-12T00:08:43.181Z,3.60
2023-03-12T00:11:12.628Z,4.05
2023-03-12T00:13:40.478Z,3.38
2023-03-12T00:16:13.767Z,2.70
2023-03-12T00:18:41.814Z,3.00
2023-03-12T00:21:09.005Z,3.22
2023-03-12T00:23:36.104Z,3.92
2023-03-12T00:26:09.535Z,2.95
2023-03-12T00:28:37.398Z,3.38
2023-03-12T00:31:13.630Z,2.95
2023-03-12T00:33:40.734Z,2.78
2023-03-12T00:36:08.293Z,3.45
2023-03-12T00:38:35.294Z,2.95
2023-03-12T00:41:02.508Z,2.33
2023-03-12T00:43:29.447Z,2.08
2023-03-12T00:45:56.489Z,3.25
2023-03-12T00:48:26.848Z,2.60
2023-03-12T00:50:53.971Z,2.95
2023-03-12T00:53:20.944Z,2.33
2023-03-12T00:55:47.998Z,2.63
2023-03-12T00:58:15.189Z,2.65
2023-03-12T01:00:42.282Z,2.03
2023-03-12T01:03:09.534Z,2.35
2023-03-12T01:05:38.139Z,2.25
2023-03-12T01:08:05.677Z,2.42
2023-03-12T01:10:32.695Z,2.95
2023-03-12T01:12:59.768Z,2.20
2023-03-12T01:15:28.178Z,2.40
2023-03-12T01:17:55.505Z,2.10
2023-03-12T01:20:23.310Z,2.50
2023-03-12T01:22:51.503Z,2.47
2023-03-12T01:25:18.872Z,2.00
2023-03-12T01:27:45.883Z,2.33
2023-03-12T01:30:13.211Z,2.22
2023-03-12T01:32:40.294Z,2.35
2023-03-12T01:35:07.788Z,2.60
2023-03-12T01:37:34.866Z,1.80
2023-03-12T01:40:02.391Z,2.50
2023-03-12T01:42:29.606Z,2.13
2023-03-12T01:45:01.258Z,2.03
2023-03-12T01:47:32.102Z,2.08
2023-03-12T01:50:01.462Z,2.88
2023-03-12T01:52:36.415Z,1.98
2023-03-12T01:55:10.193Z,2.40
2023-03-12T02:00:15.513Z,1.90
2023-03-12T02:02:44.736Z,2.13
2023-03-12T02:05:24.576Z,2.08
2023-03-12T02:10:18.809Z,2.22
2023-03-12T02:12:45.817Z,2.20
2023-03-12T02:15:13.160Z,1.85
2023-03-12T02:17:40.994Z,1.95
2023-03-12T02:20:34.753Z,2.30
2023-03-12T02:23:24.281Z,2.15
2023-03-12T02:25:52.584Z,2.90
2023-03-12T02:28:23.900Z,1.90
2023-03-12T02:30:54.109Z,2.10
2023-03-12T02:33:21.184Z,2.00
2023-03-12T02:35:48.918Z,2.22
2023-03-12T02:38:45.059Z,2.13
2023-03-12T02:41:15.700Z,2.00
2023-03-12T02:43:46.471Z,1.92
2023-03-12T02:46:14.615Z,1.92
2023-03-12T02:48:42.022Z,1.90
2023-03-12T02:51:09.283Z,1.95
2023-03-12T02:53:36.393Z,2.17
2023-03-12T02:56:03.648Z,1.88
2023-03-12T02:58:30.743Z,1.92
2023-03-12T03:00:58.494Z,1.73
2023-03-12T03:03:25.808Z,1.85
2023-03-12T03:05:53.039Z,1.75
2023-03-12T03:08:20.142Z,2.10
2023-03-12T03:10:47.606Z,2.22
2023-03-12T03:13:14.552Z,2.00
2023-03-12T03:15:41.740Z,2.05
2023-03-12T03:18:09.009Z,1.80
2023-03-12T03:20:36.082Z,2.30
2023-03-12T03:23:03.401Z,2.22
2023-03-12T03:25:30.530Z,1.88
2023-03-12T03:27:57.716Z,2.15
2023-03-12T03:30:24.815Z,2.45
2023-03-12T03:32:53.409Z,1.70
2023-03-12T03:35:22.641Z,2.10
2023-03-12T03:37:49.843Z,2.05
2023-03-12T03:40:17.436Z,1.75
2023-03-12T03:43:09.846Z,2.17
2023-03-12T03:46:05.435Z,2.15
2023-03-12T03:48:36.067Z,1.55
2023-03-12T03:51:05.592Z,2.38
2023-03-12T03:53:35.413Z,1.83
2023-03-12T03:56:08.361Z,1.70
2023-03-12T03:58:38.057Z,1.70
2023-03-12T04:01:06.382Z,2.20
2023-03-12T04:03:34.812Z,2.20
2023-03-12T04:06:05.480Z,1.50
2023-03-12T04:08:35.717Z,1.73
2023-03-12T04:11:15.397Z,1.80
2023-03-12T04:13:44.229Z,2.08
2023-03-12T04:16:12.813Z,1.92
2023-03-12T04:18:40.384Z,2.10
2023-03-12T04:21:10.396Z,2.10
2023-03-12T04:23:38.629Z,1.73
2023-03-12T04:26:07.713Z,1.80
2023-03-12T04:28:36.419Z,1.15
2023-03-12T04:31:07.221Z,2.10
2023-03-12T04:33:41.370Z,1.60
2023-03-12T04:36:11.734Z,1.92
2023-03-12T04:38:40.923Z,1.73
2023-03-12T04:41:11.969Z,1.23
2023-03-12T04:43:44.602Z,1.67
2023-03-12T04:46:12.401Z,1.95
2023-03-12T04:48:40.666Z,1.60
2023-03-12T04:51:08.116Z,1.55
2023-03-12T04:53:40.556Z,2.00
2023-03-12T04:56:09.904Z,1.85
2023-03-12T04:58:38.117Z,1.80
2023-03-12T05:01:05.896Z,1.65
2023-03-12T05:03:33.397Z,1.45
2023-03-12T05:06:01.269Z,1.50
2023-03-12T05:08:28.764Z,1.60
2023-03-12T05:10:56.962Z,1.60
2023-03-12T05:13:24.284Z,1.80
2023-03-12T05:15:55.928Z,1.73
2023-03-12T05:18:23.189Z,1.95
2023-03-12T05:21:08.569Z,1.77
2023-03-12T05:23:36.761Z,1.60
2023-03-12T05:26:03.907Z,1.90
2023-03-12T05:28:31.112Z,1.70
2023-03-12T05:31:01.913Z,1.80
2023-03-12T05:33:30.542Z,1.63
2023-03-12T05:36:00.280Z,1.98
2023-03-12T05:38:27.848Z,1.50
2023-03-12T05:40:57.332Z,1.75
2023-03-12T05:43:35.393Z,1.83
2023-03-12T05:46:04.385Z,1.67
2023-03-12T05:48:33.211Z,1.85
2023-03-12T05:51:00.650Z,2.05
2023-03-12T05:53:28.184Z,2.00
2023-03-12T05:55:55.594Z,2.00
2023-03-12T05:58:22.737Z,2.33
2023-03-12T06:00:50.562Z,2.40
2023-03-12T06:03:17.972Z,1.67
2023-03-12T06:05:48.065Z,1.98
2023-03-12T06:08:15.274Z,1.85
2023-03-12T06:10:42.681Z,1.90
2023-03-12T06:13:10.998Z,2.08
2023-03-12T06:15:38.213Z,2.33
2023-03-12T06:18:06.664Z,2.15
2023-03-12T06:20:34.993Z,1.88
2023-03-12T06:23:02.390Z,2.35
2023-03-12T06:25:31.156Z,12.52
2023-03-12T06:27:58.430Z,17.52
2023-03-12T06:30:27.714Z,5.47
2023-03-12T06:32:54.907Z,2.65
2023-03-12T06:35:22.016Z,2.17
2023-03-12T06:37:49.169Z,1.98
2023-03-12T06:40:16.508Z,1.83
2023-03-12T06:42:43.664Z,1.95
2023-03-12T06:45:11.140Z,2.00
2023-03-12T06:47:38.229Z,1.77
2023-03-12T06:50:05.625Z,2.20
2023-03-12T06:52:32.999Z,2.10
2023-03-12T06:55:00.406Z,2.47
2023-03-12T06:57:27.578Z,2.10
2023-03-12T06:59:54.656Z,2.00
2023-03-12T07:02:21.651Z,1.80
2023-03-12T07:04:48.652Z,2.00
2023-03-12T07:07:17.128Z,2.42
2023-03-12T07:09:44.045Z,1.80
2023-03-12T07:12:11.388Z,1.85
2023-03-12T07:14:38.386Z,1.70
2023-03-12T07:17:05.644Z,1.25
2023-03-12T07:19:32.874Z,1.88
2023-03-12T07:21:59.836Z,1.83
2023-03-12T07:24:26.759Z,1.65
2023-03-12T07:26:53.976Z,1.60
2023-03-12T07:29:21.178Z,1.50
2023-03-12T07:31:48.193Z,1.88
2023-03-12T07:34:15.628Z,1.70
2023-03-12T07:36:43.206Z,1.77
2023-03-12T07:39:10.477Z,1.40
2023-03-12T07:41:39.100Z,1.30
2023-03-12T07:44:06.541Z,1.65
2023-03-12T07:46:33.880Z,1.45
2023-03-12T07:49:01.152Z,1.50
2023-03-12T07:51:28.411Z,1.40
2023-03-12T07:53:55.748Z,1.73
2023-03-12T07:56:23.819Z,1.70
2023-03-12T07:58:51.490Z,2.05
2023-03-12T08:01:18.933Z,1.42
2023-03-12T08:03:46.106Z,1.75
2023-03-12T08:06:13.400Z,2.63
2023-03-12T08:08:42.468Z,3.40
2023-03-12T08:11:10.134Z,2.90
2023-03-12T08:13:39.619Z,2.30
2023-03-12T08:16:09.351Z,2.85
2023-03-12T08:18:36.696Z,2.28
2023-03-12T08:21:04.209Z,3.38
2023-03-12T08:23:33.746Z,1.70
2023-03-12T08:26:00.788Z,1.70
2023-03-12T08:28:28.227Z,1.55
2023-03-12T08:30:58.991Z,1.75
2023-03-12T08:33:29.009Z,1.75
2023-03-12T08:36:00.229Z,1.30
2023-03-12T08:38:28.004Z,1.48
2023-03-12T08:40:59.342Z,1.30
2023-03-12T08:43:29.326Z,1.40
2023-03-12T08:46:02.144Z,2.00
2023-03-12T08:48:32.777Z,1.70
2023-03-12T08:51:04.190Z,2.67
2023-03-12T08:53:32.068Z,2.30
2023-03-12T08:55:59.204Z,2.78
2023-03-12T08:58:28.281Z,2.58
2023-03-12T09:00:56.690Z,2.30
2023-03-12T09:03:25.113Z,3.78
2023-03-12T09:06:06.361Z,1.80
2023-03-12T09:08:34.232Z,1.70
2023-03-12T09:11:02.357Z,1.45
2023-03-12T09:13:40.622Z,2.28
2023-03-12T09:16:12.692Z,1.85
2023-03-12T09:18:40.125Z,1.55
2023-03-12T09:21:07.189Z,1.42
2023-03-12T09:23:34.490Z,1.40
2023-03-12T09:26:01.519Z,1.23
2023-03-12T09:28:28.559Z,1.50
2023-03-12T09:30:55.841Z,1.40
2023-03-12T09:33:22.987Z,1.50
2023-03-12T09:35:57.787Z,1.25
2023-03-12T09:38:25.510Z,1.70
2023-03-12T09:40:53.390Z,1.20
2023-03-12T09:43:30.448Z,1.27
2023-03-12T09:45:57.663Z,1.55
2023-03-12T09:48:35.592Z,1.30
2023-03-12T09:51:30.719Z,1.45
2023-03-12T09:54:03.130Z,1.00
2023-03-12T09:56:30.544Z,1.00
2023-03-12T09:58:57.886Z,1.10
2023-03-12T10:01:50.811Z,0.90
2023-03-12T10:04:52.338Z,1.00
2023-03-12T10:07:53.406Z,1.70
2023-03-12T10:10:36.965Z,1.20
2023-03-12T10:13:21.514Z,1.85
2023-03-12T10:16:31.205Z,2.63
2023-03-12T10:19:22.210Z,1.70
2023-03-12T10:22:08.272Z,1.50
2023-03-12T10:24:35.366Z,1.70
2023-03-12T10:27:02.604Z,1.55
2023-03-12T10:29:35.802Z,2.30
2023-03-12T10:32:24.595Z,1.92
2023-03-12T10:35:21.504Z,1.52
2023-03-12T10:37:56.377Z,1.30
2023-03-12T10:40:34.247Z,1.42
2023-03-12T10:43:02.304Z,1.60
2023-03-12T10:45:50.468Z,2.70
2023-03-12T10:48:23.788Z,5.43
2023-03-12T10:51:08.960Z,5.43
2023-03-12T10:53:39.141Z,4.43
2023-03-12T10:56:15.337Z,2.30
2023-03-12T10:58:46.551Z,1.80
2023-03-12T11:01:23.295Z,1.92
2023-03-12T11:03:52.870Z,1.40
2023-03-12T11:06:28.976Z,1.88
2023-03-12T11:09:17.041Z,2.00
2023-03-12T11:11:49.239Z,2.40
2023-03-12T11:14:32.962Z,2.33
2023-03-12T11:17:22.385Z,2.10
2023-03-12T11:19:49.984Z,2.10
2023-03-12T11:22:29.995Z,2.53
2023-03-12T11:25:00.954Z,1.50
2023-03-12T11:27:41.121Z,2.35
2023-03-12T11:30:14.336Z,2.17
2023-03-12T11:32:45.732Z,2.45
2023-03-12T11:35:15.609Z,2.28
2023-03-12T11:38:24.146Z,1.85
2023-03-12T11:40:53.989Z,1.83
2023-03-12T11:43:43.206Z,1.40
2023-03-12T11:46:39.170Z,1.50
2023-03-12T11:49:22.054Z,1.85
2023-03-12T11:51:53.325Z,1.55
2023-03-12T11:54:30.246Z,2.13
2023-03-12T11:57:02.202Z,3.67
2023-03-12T12:00:12.438Z,1.67
2023-03-12T12:02:48.434Z,1.85
2023-03-12T12:05:41.036Z,2.60
2023-03-12T12:08:30.070Z,2.00
2023-03-12T12:11:06.143Z,1.50
2023-03-12T12:13:42.905Z,1.58
2023-03-12T12:16:36.532Z,1.20
2023-03-12T12:19:25.831Z,1.60
2023-03-12T12:22:30.388Z,1.40
2023-03-12T12:25:16.499Z,1.23
2023-03-12T12:28:03.855Z,1.10
2023-03-12T12:31:00.554Z,2.03
2023-03-12T12:33:27.732Z,1.30
2023-03-12T12:35:54.741Z,1.40
2023-03-12T12:38:32.820Z,1.45
2023-03-12T12:41:15.210Z,1.20
2023-03-12T12:43:44.667Z,1.10
2023-03-12T12:46:22.778Z,1.05
2023-03-12T12:48:52.847Z,1.27
2023-03-12T12:51:36.713Z,1.50
2023-03-12T12:54:12.957Z,1.20
2023-03-12T12:56:43.113Z,1.38
2023-03-12T12:59:43.705Z,1.02
2023-03-12T13:02:39.296Z,1.00
2023-03-12T13:05:19.943Z,2.30
2023-03-12T13:07:47.277Z,1.85
2023-03-12T13:10:33.520Z,2.90
2023-03-12T13:13:18.098Z,2.80
2023-03-12T13:15:45.476Z,4.40
2023-03-12T13:18:25.428Z,4.43
2023-03-12T13:20:52.557Z,2.60
2023-03-12T13:23:38.720Z,2.08
2023-03-12T13:26:27.535Z,6.03
2023-03-12T13:29:05.945Z,5.93
2023-03-12T13:31:37.956Z,7.32
2023-03-12T13:34:20.695Z,2.50
2023-03-12T13:36:52.069Z,2.20
2023-03-12T13:39:30.270Z,1.80
2023-03-12T13:41:59.044Z,1.20
2023-03-12T13:44:34.120Z,1.70
2023-03-12T13:47:12.088Z,1.00
2023-03-12T13:49:52.551Z,1.70
2023-03-12T13:52:41.280Z,1.42
2023-03-12T13:55:14.758Z,1.35
2023-03-12T13:57:44.685Z,1.60
2023-03-12T14:00:27.596Z,1.20
2023-03-12T14:03:20.990Z,1.50
2023-03-12T14:05:57.309Z,1.70
2023-03-12T14:08:48.045Z,2.10
2023-03-12T14:11:41.463Z,2.80
2023-03-12T14:14:20.779Z,2.92
2023-03-12T14:16:50.572Z,2.05
2023-03-12T14:19:30.350Z,2.30
2023-03-12T14:22:02.388Z,1.30
2023-03-12T14:24:38.512Z,1.25
2023-03-12T14:27:11.435Z,1.63
2023-03-12T14:29:55.529Z,1.83
2023-03-12T14:32:32.436Z,1.90
2023-03-12T14:35:22.912Z,1.52
2023-03-12T14:37:56.836Z,1.60
2023-03-12T14:40:44.313Z,1.90
2023-03-12T14:43:25.045Z,1.67
2023-03-12T14:45:59.443Z,1.50
2023-03-12T14:48:32.594Z,3.17
2023-03-12T14:51:04.187Z,2.40
2023-03-12T14:53:36.723Z,1.80
2023-03-12T14:56:12.818Z,2.17
2023-03-12T14:58:46.869Z,2.20
2023-03-12T15:01:39.624Z,1.80
2023-03-12T15:04:16.493Z,2.65
2023-03-12T15:06:56.745Z,6.15
2023-03-12T15:09:27.066Z,6.13
2023-03-12T15:12:00.928Z,1.50
2023-03-12T15:14:33.799Z,1.38
2023-03-12T15:17:02.808Z,1.52
2023-03-12T15:19:35.394Z,1.55
2023-03-12T15:22:03.828Z,1.88
2023-03-12T15:24:40.762Z,1.80
2023-03-12T15:27:28.227Z,1.73
2023-03-12T15:29:56.762Z,1.77
2023-03-12T15:32:25.224Z,1.80
2023-03-12T15:34:59.102Z,1.80
2023-03-12T15:37:41.239Z,1.75
2023-03-12T15:40:22.417Z,1.92
2023-03-12T15:42:50.233Z,1.48
2023-03-12T15:45:23.674Z,1.70
2023-03-12T15:47:53.500Z,1.40
2023-03-12T15:50:29.987Z,1.40
2023-03-12T15:53:27.628Z,1.38
2023-03-12T15:56:24.421Z,1.50
2023-03-12T15:59:24.271Z,1.60
2023-03-12T16:01:54.203Z,1.60
2023-03-12T16:04:22.502Z,1.50
2023-03-12T16:06:50.566Z,1.50
2023-03-12T16:09:24.892Z,1.30
2023-03-12T16:11:53.674Z,2.10
2023-03-12T16:14:33.047Z,1.70
2023-03-12T16:17:00.211Z,2.00
2023-03-12T16:19:30.265Z,2.70
2023-03-12T16:21:57.305Z,2.40
2023-03-12T16:24:24.536Z,3.17
2023-03-12T16:26:55.510Z,2.72
2023-03-12T16:29:27.307Z,2.50
2023-03-12T16:31:57.732Z,2.30
2023-03-12T16:34:25.913Z,3.15
2023-03-12T16:36:53.078Z,2.83
2023-03-12T16:39:20.788Z,3.72
2023-03-12T16:41:47.944Z,2.63
2023-03-12T16:44:20.031Z,2.22
2023-03-12T16:46:47.283Z,2.13
2023-03-12T16:49:16.236Z,2.83
2023-03-12T16:51:43.479Z,2.60
2023-03-12T16:54:12.151Z,2.33
2023-03-12T16:56:44.097Z,2.85
2023-03-12T16:59:23.278Z,2.83
2023-03-12T17:01:50.540Z,3.00
2023-03-12T17:04:17.622Z,3.38
2023-03-12T17:06:44.627Z,2.60
2023-03-12T17:09:11.749Z,3.17
2023-03-12T17:11:39.199Z,3.17
2023-03-12T17:14:30.012Z,2.60
2023-03-12T17:16:57.391Z,2.50
2023-03-12T17:19:24.369Z,2.50
2023-03-12T17:21:51.406Z,2.50
2023-03-12T17:24:18.676Z,3.10
2023-03-12T17:26:46.653Z,4.47
2023-03-12T17:29:13.808Z,3.05
2023-03-12T17:31:40.966Z,3.65
2023-03-12T17:34:08.932Z,3.20
2023-03-12T17:36:37.867Z,2.53
2023-03-12T17:39:04.918Z,2.15
2023-03-12T17:41:33.261Z,2.40
2023-03-12T17:44:02.212Z,3.10
2023-03-12T17:46:30.620Z,3.03
2023-03-12T17:48:57.700Z,3.10
2023-03-12T17:51:25.728Z,3.83
2023-03-12T17:53:52.736Z,3.33
2023-03-12T17:56:19.812Z,3.63
2023-03-12T17:58:46.976Z,3.75
2023-03-12T18:01:15.331Z,3.67
2023-03-12T18:03:44.078Z,3.60
2023-03-12T18:06:11.757Z,3.40
2023-03-12T18:08:39.371Z,2.95
2023-03-12T18:11:06.544Z,2.90
2023-03-12T18:13:33.732Z,3.72
2023-03-12T18:16:00.989Z,3.40
2023-03-12T18:18:28.459Z,2.95
2023-03-12T18:20:56.053Z,3.15
2023-03-12T18:23:25.292Z,2.72
2023-03-12T18:25:52.571Z,2.92
2023-03-12T18:28:20.924Z,3.22
2023-03-12T18:30:48.279Z,2.80
2023-03-12T18:33:15.771Z,3.20
2023-03-12T18:35:46.742Z,3.22
2023-03-12T18:38:13.896Z,3.20
2023-03-12T18:40:41.016Z,3.03
2023-03-12T18:43:08.385Z,3.25
2023-03-12T18:45:35.629Z,3.20
2023-03-12T18:48:02.865Z,3.25
2023-03-12T18:50:29.905Z,2.80
2023-03-12T18:52:57.137Z,2.92
2023-03-12T18:55:24.360Z,2.63
2023-03-12T18:57:52.115Z,2.58
2023-03-12T19:00:19.763Z,2.50
2023-03-12T19:02:48.449Z,2.30
2023-03-12T19:05:16.545Z,2.53
2023-03-12T19:07:43.908Z,2.75
2023-03-12T19:10:12.621Z,2.65
2023-03-12T19:12:51.673Z,2.78
2023-03-12T19:15:20.546Z,2.83
2023-03-12T19:17:47.746Z,3.20
2023-03-12T19:20:15.671Z,2.45
2023-03-12T19:22:42.950Z,2.40
2023-03-12T19:25:10.146Z,2.58
2023-03-12T19:27:37.275Z,2.40
2023-03-12T19:30:05.541Z,2.67
2023-03-12T19:32:42.280Z,2.70
2023-03-12T19:35:11.488Z,2.08
2023-03-12T19:37:38.681Z,2.35
2023-03-12T19:40:06.707Z,1.90
2023-03-12T19:42:33.958Z,2.17
2023-03-12T19:45:01.218Z,2.40
2023-03-12T19:47:28.482Z,2.35
2023-03-12T19:49:55.723Z,2.53
2023-03-12T19:52:23.159Z,2.70
2023-03-12T19:55:03.210Z,2.85
2023-03-12T19:57:30.789Z,3.53
2023-03-12T19:59:57.742Z,3.10
2023-03-12T20:02:26.175Z,2.42
2023-03-12T20:04:54.035Z,2.55
2023-03-12T20:07:21.312Z,2.50
2023-03-12T20:09:48.698Z,2.30
2023-03-12T20:12:15.730Z,2.78
2023-03-12T20:14:43.124Z,2.75
2023-03-12T20:17:12.183Z,2.10
2023-03-12T20:19:39.873Z,3.63
2023-03-12T20:22:07.789Z,2.80
2023-03-12T20:24:35.238Z,4.90
2023-03-12T20:27:02.234Z,2.85
2023-03-12T20:29:29.227Z,2.40
2023-03-12T20:31:56.448Z,2.30
2023-03-12T20:34:24.986Z,2.42
2023-03-12T20:36:52.240Z,2.50
2023-03-12T20:39:19.455Z,2.97
2023-03-12T20:41:46.700Z,2.30
2023-03-12T20:44:14.856Z,1.70
2023-03-12T20:46:43.096Z,1.90
2023-03-12T20:49:10.247Z,1.70
2023-03-12T20:51:37.541Z,1.80
2023-03-12T20:54:04.839Z,1.80
2023-03-12T20:56:32.092Z,2.03
2023-03-12T20:58:59.702Z,2.00
2023-03-12T21:01:26.873Z,1.40
2023-03-12T21:03:59.990Z,2.20
2023-03-12T21:06:27.732Z,1.98
2023-03-12T21:08:58.612Z,1.30
2023-03-12T21:11:29.195Z,1.38
2023-03-12T21:13:56.209Z,1.30
2023-03-12T21:16:23.420Z,1.50
2023-03-12T21:18:54.879Z,2.05
2023-03-12T21:21:22.036Z,1.67
2023-03-12T21:23:49.157Z,1.60
2023-03-12T21:26:18.276Z,1.30
2023-03-12T21:28:45.978Z,1.70
2023-03-12T21:31:16.330Z,1.55
2023-03-12T21:33:43.536Z,1.50
2023-03-12T21:36:13.681Z,1.50
2023-03-12T21:38:42.963Z,1.40
2023-03-12T21:41:12.809Z,1.70
2023-03-12T21:43:40.650Z,1.40
2023-03-12T21:46:11.244Z,1.60
2023-03-12T21:48:39.315Z,1.40
2023-03-12T21:51:08.823Z,1.40
2023-03-12T21:53:36.874Z,1.30
2023-03-12T21:56:05.942Z,1.60
2023-03-12T21:58:35.172Z,1.33
2023-03-12T22:01:13.642Z,1.50
2023-03-12T22:03:42.263Z,1.30
2023-03-12T22:06:10.267Z,1.30
2023-03-12T22:08:38.252Z,1.30
2023-03-12T22:11:06.912Z,1.63
2023-03-12T22:13:34.488Z,1.35
2023-03-12T22:16:06.100Z,1.38
2023-03-12T22:18:36.037Z,1.50
2023-03-12T22:21:05.399Z,2.45
2023-03-12T22:23:33.840Z,1.50
2023-03-12T22:26:02.063Z,1.40
2023-03-12T22:28:29.281Z,1.48
2023-03-12T22:31:01.949Z,1.80
2023-03-12T22:33:29.348Z,1.67
2023-03-12T22:35:56.794Z,2.03
2023-03-12T22:38:25.011Z,2.00
2023-03-12T22:40:55.515Z,1.88
2023-03-12T22:43:24.834Z,1.98
2023-03-12T22:45:54.990Z,1.83
2023-03-12T22:48:22.082Z,2.30
2023-03-12T22:50:55.436Z,2.10
2023-03-12T22:53:22.680Z,1.95
2023-03-12T22:56:07.513Z,2.13
2023-03-12T22:58:34.956Z,2.25
2023-03-12T23:01:08.567Z,2.17
2023-03-12T23:03:36.662Z,2.83
2023-03-12T23:06:04.373Z,2.20
2023-03-12T23:08:31.570Z,2.45
2023-03-12T23:11:02.785Z,2.28
2023-03-12T23:13:31.813Z,2.47
2023-03-12T23:16:07.495Z,2.60
2023-03-12T23:18:34.934Z,2.53
2023-03-12T23:21:05.098Z,2.67
2023-03-12T23:23:32.425Z,3.08
2023-03-12T23:26:00.654Z,3.25
2023-03-12T23:28:29.830Z,2.67
2023-03-12T23:31:01.953Z,2.78
2023-03-12T23:33:30.157Z,2.75
2023-03-12T23:36:01.742Z,2.50
2023-03-12T23:38:29.658Z,3.28
2023-03-12T23:41:05.340Z,2.72
2023-03-12T23:43:32.862Z,3.10
2023-03-12T23:46:01.468Z,2.55
2023-03-12T23:48:30.420Z,3.05
2023-03-12T23:51:06.912Z,3.20
2023-03-12T23:53:34.544Z,3.10
2023-03-12T23:56:03.194Z,3.28
2023-03-12T23:58:30.333Z,3.20
